createdAt,value
2022-09-01T00:00:48.750Z,1.70
2022-09-01T00:01:47.731Z,1.60
2022-09-01T00:02:47.830Z,1.80
2022-09-01T00:03:47.713Z,1.70
2022-09-01T00:04:47.770Z,1.70
2022-09-01T00:05:47.681Z,1.70
2022-09-01T00:06:48.199Z,1.80
2022-09-01T00:07:47.661Z,1.80
2022-09-01T00:08:47.710Z,1.80
2022-09-01T00:09:47.648Z,2.10
2022-09-01T00:10:47.641Z,1.50
2022-09-01T00:11:50.570Z,1.90
2022-09-01T00:12:47.619Z,1.60
2022-09-01T00:13:47.609Z,1.70
2022-09-01T00:14:47.609Z,1.60
2022-09-01T00:15:47.638Z,1.90
2022-09-01T00:16:47.574Z,1.70
2022-09-01T00:17:47.552Z,1.80
2022-09-01T00:18:47.622Z,1.80
2022-09-01T00:19:47.542Z,1.70
2022-09-01T00:20:47.530Z,1.50
2022-09-01T00:21:47.511Z,1.90
2022-09-01T00:22:47.521Z,1.80
2022-09-01T00:23:47.620Z,1.90
2022-09-01T00:24:47.490Z,1.60
2022-09-01T00:25:47.470Z,1.80
2022-09-01T00:26:47.470Z,1.70
2022-09-01T00:27:47.440Z,1.80
2022-09-01T00:28:48.171Z,1.80
2022-09-01T00:29:47.423Z,1.50
2022-09-01T00:30:47.466Z,1.70
2022-09-01T00:31:47.415Z,1.60
2022-09-01T00:32:47.400Z,1.80
2022-09-01T00:33:47.374Z,1.70
2022-09-01T00:34:47.380Z,1.60
2022-09-01T00:35:47.354Z,1.90
2022-09-01T00:36:47.358Z,1.50
2022-09-01T00:37:47.331Z,1.70
2022-09-01T00:38:47.362Z,2.10
2022-09-01T00:39:47.311Z,2.00
2022-09-01T00:40:47.368Z,1.70
2022-09-01T00:41:47.301Z,1.90
2022-09-01T00:42:47.287Z,1.70
2022-09-01T00:43:47.260Z,1.70
2022-09-01T00:44:47.267Z,1.90
2022-09-01T00:45:47.257Z,1.70
2022-09-01T00:46:49.481Z,1.50
2022-09-01T00:47:47.223Z,1.70
2022-09-01T00:48:47.231Z,1.70
2022-09-01T00:49:47.195Z,1.70
2022-09-01T00:50:47.196Z,1.90
2022-09-01T00:51:47.171Z,2.00
2022-09-01T00:52:47.172Z,1.40
2022-09-01T00:53:47.154Z,1.90
2022-09-01T00:54:47.151Z,2.20
2022-09-01T00:55:47.120Z,1.60
2022-09-01T00:56:47.128Z,1.50
2022-09-01T00:57:48.115Z,1.80
2022-09-01T00:58:47.473Z,1.60
2022-09-01T00:59:47.081Z,1.60
2022-09-01T01:00:47.081Z,1.60
2022-09-01T01:01:47.120Z,1.60
2022-09-01T01:02:47.124Z,1.70
2022-09-01T01:03:47.032Z,1.70
2022-09-01T01:04:47.031Z,1.90
2022-09-01T01:05:47.012Z,1.70
2022-09-01T01:06:47.011Z,1.70
2022-09-01T01:07:47.707Z,1.60
2022-09-01T01:08:47.885Z,1.60
2022-09-01T01:09:46.962Z,1.70
2022-09-01T01:10:46.970Z,1.90
2022-09-01T01:11:46.941Z,1.80
2022-09-01T01:12:46.945Z,1.90
2022-09-01T01:13:46.924Z,1.50
2022-09-01T01:14:46.921Z,1.70
2022-09-01T01:15:46.931Z,1.60
2022-09-01T01:16:46.953Z,1.50
2022-09-01T01:17:46.872Z,1.70
2022-09-01T01:18:46.891Z,1.70
2022-09-01T01:19:46.891Z,1.70
2022-09-01T01:20:46.852Z,1.60
2022-09-01T01:21:46.851Z,1.90
2022-09-01T01:22:46.812Z,1.90
2022-09-01T01:23:46.851Z,1.90
2022-09-01T01:24:46.792Z,1.60
2022-09-01T01:25:46.804Z,1.80
2022-09-01T01:26:46.769Z,1.60
2022-09-01T01:27:46.771Z,1.60
2022-09-01T01:28:47.549Z,1.80
2022-09-01T01:29:46.773Z,1.90
2022-09-01T01:30:46.760Z,1.80
2022-09-01T01:31:46.731Z,1.70
2022-09-01T01:32:46.701Z,1.60
2022-09-01T01:33:46.700Z,2.10
2022-09-01T01:34:48.628Z,1.70
2022-09-01T01:35:46.686Z,1.80
2022-09-01T01:36:46.662Z,1.90
2022-09-01T01:37:46.678Z,1.80
2022-09-01T01:38:46.631Z,1.70
2022-09-01T01:39:46.630Z,1.90
2022-09-01T01:40:46.684Z,2.00
2022-09-01T01:41:46.623Z,1.70
2022-09-01T01:42:46.592Z,1.50
2022-09-01T01:43:46.641Z,1.90
2022-09-01T01:44:46.583Z,1.90
2022-09-01T01:45:46.645Z,1.70
2022-09-01T01:46:46.541Z,1.50
2022-09-01T01:47:46.541Z,1.70
2022-09-01T01:48:46.541Z,1.70
2022-09-01T01:49:46.527Z,1.70
2022-09-01T01:50:46.493Z,1.80
2022-09-01T01:51:46.492Z,2.00
2022-09-01T01:52:46.471Z,1.80
2022-09-01T01:53:46.471Z,2.10
2022-09-01T01:54:46.448Z,1.70
2022-09-01T01:55:46.442Z,1.60
2022-09-01T01:56:46.432Z,2.00
2022-09-01T01:57:46.421Z,1.90
2022-09-01T01:58:46.445Z,1.90
2022-09-01T01:59:46.401Z,1.40
2022-09-01T02:00:46.371Z,1.70
2022-09-01T02:01:46.423Z,1.80
2022-09-01T02:02:46.382Z,1.70
2022-09-01T02:03:46.362Z,1.70
2022-09-01T02:04:47.121Z,1.70
2022-09-01T02:05:46.342Z,1.90
2022-09-01T02:06:46.311Z,1.60
2022-09-01T02:07:46.320Z,2.00
2022-09-01T02:08:46.989Z,1.70
2022-09-01T02:09:47.150Z,1.90
2022-09-01T02:10:46.278Z,1.60
2022-09-01T02:11:46.257Z,1.60
2022-09-01T02:12:46.240Z,1.80
2022-09-01T02:13:46.248Z,1.70
2022-09-01T02:14:46.252Z,1.70
2022-09-01T02:15:46.221Z,1.80
2022-09-01T02:16:46.250Z,1.70
2022-09-01T02:17:46.194Z,1.60
2022-09-01T02:18:46.175Z,1.40
2022-09-01T02:19:46.172Z,1.90
2022-09-01T02:20:46.151Z,2.10
2022-09-01T02:21:46.149Z,1.60
2022-09-01T02:22:46.120Z,1.70
2022-09-01T02:23:46.131Z,1.50
2022-09-01T02:24:46.091Z,1.50
2022-09-01T02:26:14.047Z,1.80
2022-09-01T02:26:47.078Z,2.30
2022-09-01T02:27:46.070Z,1.70
2022-09-01T02:28:46.870Z,2.00
2022-09-01T02:29:46.072Z,1.60
2022-09-01T02:30:46.072Z,1.70
2022-09-01T02:31:46.031Z,1.60
2022-09-01T02:32:46.002Z,1.80
2022-09-01T02:33:46.009Z,1.50
2022-09-01T02:34:45.980Z,1.70
2022-09-01T02:35:45.982Z,1.80
2022-09-01T02:36:45.960Z,1.90
2022-09-01T02:37:45.971Z,1.80
2022-09-01T02:38:46.824Z,1.60
2022-09-01T02:39:46.932Z,1.80
2022-09-01T02:40:45.942Z,1.70
2022-09-01T02:41:45.933Z,1.90
2022-09-01T02:42:45.890Z,1.90
2022-09-01T02:43:45.901Z,1.90
2022-09-01T02:44:45.891Z,1.70
2022-09-01T02:45:45.884Z,2.00
2022-09-01T02:46:45.840Z,1.70
2022-09-01T02:47:45.850Z,1.80
2022-09-01T02:48:46.743Z,1.80
2022-09-01T02:49:45.841Z,1.80
2022-09-01T02:50:45.812Z,1.90
2022-09-01T02:51:45.800Z,1.70
2022-09-01T02:52:45.780Z,1.70
2022-09-01T02:53:46.510Z,1.60
2022-09-01T02:54:45.771Z,1.90
2022-09-01T02:55:45.751Z,2.00
2022-09-01T02:56:45.729Z,1.60
2022-09-01T02:57:45.727Z,2.20
2022-09-01T02:58:46.545Z,1.80
2022-09-01T02:59:46.340Z,1.90
2022-09-01T03:00:45.704Z,1.70
2022-09-01T03:01:45.679Z,2.00
2022-09-01T03:02:46.641Z,2.00
2022-09-01T03:03:46.576Z,1.90
2022-09-01T03:04:45.696Z,1.90
2022-09-01T03:05:45.637Z,1.90
2022-09-01T03:06:45.609Z,1.90
2022-09-01T03:07:45.618Z,1.90
2022-09-01T03:08:46.384Z,2.00
2022-09-01T03:09:45.619Z,2.10
2022-09-01T03:10:46.409Z,1.80
2022-09-01T03:11:45.559Z,1.90
2022-09-01T03:12:45.549Z,2.30
2022-09-01T03:13:45.720Z,2.40
2022-09-01T03:14:45.529Z,2.10
2022-09-01T03:15:46.040Z,1.90
2022-09-01T03:16:45.585Z,2.10
2022-09-01T03:17:45.499Z,1.80
2022-09-01T03:18:46.167Z,1.80
2022-09-01T03:19:45.474Z,2.10
2022-09-01T03:20:45.469Z,1.90
2022-09-01T03:21:45.476Z,1.90
2022-09-01T03:22:45.430Z,2.30
2022-09-01T03:23:45.483Z,2.10
2022-09-01T03:24:45.398Z,2.00
2022-09-01T03:25:45.408Z,1.80
2022-09-01T03:26:45.389Z,2.10
2022-09-01T03:27:45.723Z,2.00
2022-09-01T03:28:46.259Z,2.00
2022-09-01T03:29:45.359Z,2.00
2022-09-01T03:30:46.058Z,2.20
2022-09-01T03:31:45.434Z,1.90
2022-09-01T03:32:45.331Z,2.00
2022-09-01T03:33:45.961Z,2.10
2022-09-01T03:34:45.289Z,2.00
2022-09-01T03:35:45.298Z,2.20
2022-09-01T03:36:45.989Z,2.30
2022-09-01T03:37:46.088Z,2.00
2022-09-01T03:38:46.058Z,2.00
2022-09-01T03:39:45.259Z,2.10
2022-09-01T03:40:45.346Z,1.90
2022-09-01T03:41:46.021Z,2.00
2022-09-01T03:42:45.400Z,1.90
2022-09-01T03:43:48.214Z,1.90
2022-09-01T03:44:45.188Z,2.00
2022-09-01T03:45:45.929Z,2.10
2022-09-01T03:46:45.227Z,2.40
2022-09-01T03:47:45.175Z,2.20
2022-09-01T03:48:45.840Z,1.90
2022-09-01T03:49:46.029Z,2.20
2022-09-01T03:50:45.928Z,2.40
2022-09-01T03:51:45.833Z,1.90
2022-09-01T03:52:45.438Z,2.00
2022-09-01T03:53:45.089Z,2.50
2022-09-01T03:54:45.078Z,2.10
2022-09-01T03:55:45.962Z,2.30
2022-09-01T03:56:45.038Z,2.00
2022-09-01T03:57:45.629Z,2.10
2022-09-01T03:58:45.049Z,2.30
2022-09-01T03:59:45.072Z,2.20
2022-09-01T04:00:48.900Z,1.80
2022-09-01T04:01:44.988Z,2.30
2022-09-01T04:02:45.939Z,2.00
2022-09-01T04:03:44.978Z,2.20
2022-09-01T04:04:44.958Z,2.00
2022-09-01T04:05:44.968Z,2.00
2022-09-01T04:06:45.679Z,1.90
2022-09-01T04:07:45.829Z,2.20
2022-09-01T04:08:45.739Z,2.10
2022-09-01T04:09:44.918Z,1.80
2022-09-01T04:10:44.884Z,2.30
2022-09-01T04:11:46.114Z,2.00
2022-09-01T04:12:45.608Z,1.80
2022-09-01T04:13:44.898Z,2.10
2022-09-01T04:14:44.818Z,2.20
2022-09-01T04:15:44.828Z,2.10
2022-09-01T04:16:44.990Z,2.10
2022-09-01T04:17:45.642Z,2.20
2022-09-01T04:18:45.548Z,2.00
2022-09-01T04:19:44.935Z,2.30
2022-09-01T04:20:44.769Z,1.80
2022-09-01T04:21:45.478Z,2.00
2022-09-01T04:22:45.678Z,2.10
2022-09-01T04:23:45.578Z,2.30
2022-09-01T04:24:45.226Z,2.40
2022-09-01T04:25:44.728Z,2.30
2022-09-01T04:26:44.696Z,2.50
2022-09-01T04:27:44.798Z,2.20
2022-09-01T04:28:45.621Z,2.40
2022-09-01T04:29:44.699Z,2.30
2022-09-01T04:30:45.455Z,2.40
2022-09-01T04:31:45.605Z,2.00
2022-09-01T04:32:45.458Z,2.20
2022-09-01T04:33:44.662Z,2.00
2022-09-01T04:34:44.828Z,2.00
2022-09-01T04:35:45.448Z,2.30
2022-09-01T04:36:44.579Z,2.30
2022-09-01T04:37:44.580Z,2.10
2022-09-01T04:38:44.567Z,2.20
2022-09-01T04:39:45.318Z,2.20
2022-09-01T04:40:44.615Z,1.90
2022-09-01T04:41:44.526Z,2.40
2022-09-01T04:42:44.509Z,2.10
2022-09-01T04:43:44.528Z,2.00
2022-09-01T04:44:44.497Z,2.00
2022-09-01T04:45:45.060Z,2.10
2022-09-01T04:46:44.506Z,2.30
2022-09-01T04:47:44.466Z,2.10
2022-09-01T04:48:44.617Z,2.50
2022-09-01T04:49:44.447Z,2.30
2022-09-01T04:50:45.258Z,1.80
2022-09-01T04:51:44.431Z,2.60
2022-09-01T04:52:44.798Z,1.90
2022-09-01T04:53:44.404Z,2.10
2022-09-01T04:54:44.402Z,2.00
2022-09-01T04:55:44.976Z,2.40
2022-09-01T04:56:45.079Z,2.20
2022-09-01T04:57:44.347Z,1.90
2022-09-01T04:58:44.685Z,2.20
2022-09-01T04:59:44.499Z,2.20
2022-09-01T05:00:45.163Z,1.90
2022-09-01T05:01:44.351Z,2.10
2022-09-01T05:02:45.133Z,2.70
2022-09-01T05:03:51.348Z,2.20
2022-09-01T05:04:44.980Z,2.20
2022-09-01T05:05:45.135Z,2.40
2022-09-01T05:06:45.034Z,2.30
2022-09-01T05:07:44.254Z,1.90
2022-09-01T05:08:45.064Z,2.30
2022-09-01T05:09:44.324Z,2.10
2022-09-01T05:10:44.904Z,2.20
2022-09-01T05:11:44.332Z,2.10
2022-09-01T05:12:44.964Z,2.20
2022-09-01T05:13:44.842Z,2.30
2022-09-01T05:14:44.244Z,1.90
2022-09-01T05:15:44.134Z,2.50
2022-09-01T05:16:44.155Z,2.20
2022-09-01T05:17:45.004Z,2.10
2022-09-01T05:18:44.117Z,2.50
2022-09-01T05:19:44.125Z,2.60
2022-09-01T05:20:44.085Z,2.90
2022-09-01T05:21:44.886Z,2.20
2022-09-01T05:22:44.775Z,2.40
2022-09-01T05:23:44.934Z,2.40
2022-09-01T05:24:44.033Z,2.30
2022-09-01T05:25:44.023Z,2.10
2022-09-01T05:26:44.532Z,2.60
2022-09-01T05:27:44.004Z,2.40
2022-09-01T05:28:44.726Z,2.70
2022-09-01T05:29:43.993Z,2.80
2022-09-01T05:30:43.972Z,2.50
2022-09-01T05:31:44.014Z,3.20
2022-09-01T05:32:44.819Z,4.00
2022-09-01T05:33:44.743Z,3.60
2022-09-01T05:34:44.645Z,3.80
2022-09-01T05:35:43.904Z,3.70
2022-09-01T05:36:43.894Z,3.20
2022-09-01T05:37:43.883Z,2.70
2022-09-01T05:38:43.912Z,2.80
2022-09-01T05:39:44.211Z,2.80
2022-09-01T05:40:44.161Z,2.80
2022-09-01T05:41:43.823Z,3.20
2022-09-01T05:42:43.833Z,3.60
2022-09-01T05:43:43.824Z,3.60
2022-09-01T05:44:43.804Z,4.40
2022-09-01T05:46:03.375Z,4.90
2022-09-01T05:46:45.225Z,5.10
2022-09-01T05:47:43.753Z,5.00
2022-09-01T05:48:43.783Z,4.20
2022-09-01T05:49:43.733Z,4.20
2022-09-01T05:50:43.773Z,4.60
2022-09-01T05:51:45.833Z,4.80
2022-09-01T05:52:45.431Z,4.70
2022-09-01T05:53:44.613Z,4.40
2022-09-01T05:54:43.861Z,4.60
2022-09-01T05:55:43.672Z,3.90
2022-09-01T05:56:44.599Z,4.40
2022-09-01T05:57:43.643Z,5.20
2022-09-01T05:59:44.953Z,3.90
2022-09-01T06:00:43.622Z,4.30
2022-09-01T06:01:48.104Z,3.60
2022-09-01T06:02:44.752Z,4.50
2022-09-01T06:03:43.584Z,4.60
2022-09-01T06:04:43.579Z,4.60
2022-09-01T06:05:43.553Z,4.40
2022-09-01T06:07:01.765Z,3.90
2022-09-01T06:07:44.544Z,3.60
2022-09-01T06:08:46.719Z,3.90
2022-09-01T06:09:43.502Z,3.80
2022-09-01T06:10:43.511Z,3.70
2022-09-01T06:11:43.485Z,3.50
2022-09-01T06:12:43.484Z,3.60
2022-09-01T06:13:43.752Z,3.60
2022-09-01T06:14:43.472Z,3.30
2022-09-01T06:15:43.432Z,3.30
2022-09-01T06:16:43.536Z,3.30
2022-09-01T06:17:43.413Z,3.20
2022-09-01T06:18:43.463Z,3.00
2022-09-01T06:19:43.392Z,3.30
2022-09-01T06:20:43.393Z,2.70
2022-09-01T06:21:43.372Z,2.70
2022-09-01T06:22:43.363Z,2.60
2022-09-01T06:23:44.309Z,2.40
2022-09-01T06:24:43.635Z,2.50
2022-09-01T06:25:43.379Z,2.60
2022-09-01T06:26:43.350Z,2.30
2022-09-01T06:27:43.326Z,2.40
2022-09-01T06:28:43.310Z,3.40
2022-09-01T06:29:43.271Z,4.30
2022-09-01T06:30:43.273Z,2.10
2022-09-01T06:31:43.450Z,4.80
2022-09-01T06:32:43.252Z,6.70
2022-09-01T06:33:43.251Z,5.30
2022-09-01T06:34:44.010Z,3.70
2022-09-01T06:35:43.234Z,4.50
2022-09-01T06:36:43.204Z,3.40
2022-09-01T06:37:43.192Z,2.30
2022-09-01T06:38:43.192Z,1.80
2022-09-01T06:39:43.162Z,1.90
2022-09-01T06:40:43.179Z,1.80
2022-09-01T06:41:43.141Z,1.90
2022-09-01T06:42:43.141Z,1.50
2022-09-01T06:43:43.124Z,2.00
2022-09-01T06:44:43.132Z,2.30
2022-09-01T06:45:43.135Z,1.70
2022-09-01T06:46:43.157Z,1.60
2022-09-01T06:47:43.072Z,1.90
2022-09-01T06:48:43.103Z,1.50
2022-09-01T06:49:43.051Z,1.60
2022-09-01T06:51:44.032Z,1.30
2022-09-01T06:53:44.064Z,1.30
2022-09-01T06:54:43.003Z,1.30
2022-09-01T06:55:43.209Z,1.30
2022-09-01T06:56:45.036Z,1.40
2022-09-01T06:58:43.951Z,1.50
2022-09-01T06:59:42.932Z,1.30
2022-09-01T07:00:42.982Z,1.50
2022-09-01T07:01:43.018Z,1.30
2022-09-01T07:02:43.624Z,1.20
2022-09-01T07:03:42.905Z,1.20
2022-09-01T07:04:42.910Z,1.50
2022-09-01T07:07:54.383Z,1.40
2022-09-01T07:09:49.636Z,1.90
2022-09-01T07:14:15.370Z,1.00
2022-09-01T07:16:52.120Z,1.00
2022-09-01T07:17:43.743Z,1.00
2022-09-01T07:18:42.762Z,1.20
2022-09-01T07:19:49.996Z,1.20
2022-09-01T07:22:06.720Z,1.30
2022-09-01T07:24:43.662Z,1.50
2022-09-01T07:26:02.287Z,1.20
2022-09-01T07:26:47.529Z,1.50
2022-09-01T07:27:42.619Z,3.70
2022-09-01T07:28:42.613Z,1.40
2022-09-01T07:29:42.612Z,3.10
2022-09-01T07:30:43.383Z,1.40
2022-09-01T07:31:50.133Z,1.30
2022-09-01T07:32:47.136Z,1.30
2022-09-01T07:33:44.152Z,1.30
2022-09-01T07:36:25.554Z,1.30
2022-09-01T07:39:49.180Z,1.30
2022-09-01T07:39:51.182Z,1.10
2022-09-01T07:43:43.423Z,1.60
2022-09-01T07:44:44.186Z,1.30
2022-09-01T07:45:58.658Z,1.50
2022-09-01T07:46:43.477Z,1.50
2022-09-01T07:47:57.902Z,1.20
2022-09-01T07:51:35.268Z,6.70
2022-09-01T07:51:43.364Z,4.50
2022-09-01T07:52:42.334Z,3.10
2022-09-01T07:53:42.314Z,1.90
2022-09-01T07:54:42.314Z,1.40
2022-09-01T07:55:44.169Z,1.40
2022-09-01T07:56:42.295Z,1.40
2022-09-01T07:57:43.219Z,1.50
2022-09-01T07:58:42.277Z,1.90
2022-09-01T07:59:42.246Z,1.40
2022-09-01T08:00:42.245Z,1.70
2022-09-01T08:01:42.239Z,1.60
2022-09-01T08:02:43.041Z,1.90
2022-09-01T08:03:42.203Z,1.90
2022-09-01T08:04:42.194Z,1.40
2022-09-01T08:05:42.185Z,1.30
2022-09-01T08:06:42.176Z,1.80
2022-09-01T08:07:57.400Z,1.90
2022-09-01T08:08:43.168Z,1.20
2022-09-01T08:09:44.572Z,1.20
2022-09-01T08:10:42.126Z,1.10
2022-09-01T08:12:43.116Z,1.20
2022-09-01T08:13:42.213Z,1.30
2022-09-01T08:14:42.105Z,2.50
2022-09-01T08:16:06.768Z,1.20
2022-09-01T08:16:52.003Z,4.00
2022-09-01T08:17:51.153Z,2.10
2022-09-01T08:18:50.359Z,1.20
2022-09-01T08:19:43.884Z,1.10
2022-09-01T08:20:42.016Z,1.30
2022-09-01T08:21:41.995Z,1.30
2022-09-01T08:22:42.012Z,1.20
2022-09-01T08:23:41.977Z,0.90
2022-09-01T08:24:42.086Z,1.30
2022-09-01T08:25:41.956Z,1.30
2022-09-01T08:26:41.956Z,1.20
2022-09-01T08:27:41.925Z,4.40
2022-09-01T08:28:45.870Z,2.80
2022-09-01T08:29:41.921Z,2.60
2022-09-01T08:30:41.909Z,2.00
2022-09-01T08:31:42.908Z,1.30
2022-09-01T08:32:41.876Z,1.30
2022-09-01T08:33:41.863Z,1.10
2022-09-01T08:34:41.865Z,1.40
2022-09-01T08:35:41.848Z,1.10
2022-09-01T08:36:41.848Z,0.90
2022-09-01T08:37:41.818Z,1.10
2022-09-01T08:38:42.600Z,1.10
2022-09-01T08:39:41.796Z,1.20
2022-09-01T08:40:41.820Z,0.80
2022-09-01T08:41:43.895Z,1.40
2022-09-01T08:42:42.767Z,1.40
2022-09-01T08:43:41.747Z,1.30
2022-09-01T08:44:41.748Z,1.00
2022-09-01T08:45:41.718Z,1.40
2022-09-01T08:46:42.699Z,1.10
2022-09-01T08:48:04.726Z,1.00
2022-09-01T08:49:43.529Z,1.20
2022-09-01T08:50:41.678Z,1.20
2022-09-01T08:51:41.664Z,1.40
2022-09-01T08:52:41.668Z,1.40
2022-09-01T08:53:41.638Z,1.00
2022-09-01T08:54:41.641Z,1.20
2022-09-01T08:55:41.625Z,1.20
2022-09-01T08:56:41.609Z,1.10
2022-09-01T08:57:42.328Z,1.90
2022-09-01T08:58:41.671Z,1.20
2022-09-01T08:59:41.579Z,1.10
2022-09-01T09:00:41.568Z,1.30
2022-09-01T09:01:41.761Z,1.30
2022-09-01T09:02:42.366Z,1.20
2022-09-01T09:03:42.298Z,1.30
2022-09-01T09:04:41.528Z,1.20
2022-09-01T09:05:41.499Z,0.90
2022-09-01T09:06:41.508Z,1.00
2022-09-01T09:07:41.471Z,1.30
2022-09-01T09:08:41.530Z,1.30
2022-09-01T09:09:41.449Z,1.30
2022-09-01T09:10:41.460Z,1.20
2022-09-01T09:11:41.460Z,1.40
2022-09-01T09:12:56.528Z,1.00
2022-09-01T09:13:42.400Z,1.40
2022-09-01T09:14:41.420Z,1.50
2022-09-01T09:15:41.495Z,1.30
2022-09-01T09:16:41.390Z,1.30
2022-09-01T09:17:42.159Z,1.00
2022-09-01T09:18:54.850Z,1.10
2022-09-01T09:19:43.271Z,1.20
2022-09-01T09:20:42.172Z,1.10
2022-09-01T09:21:41.819Z,1.30
2022-09-01T09:22:41.829Z,1.30
2022-09-01T09:23:41.291Z,1.20
2022-09-01T09:24:41.842Z,1.40
2022-09-01T09:25:42.192Z,1.10
2022-09-01T09:26:43.151Z,1.20
2022-09-01T09:27:42.346Z,1.20
2022-09-01T09:28:43.102Z,1.20
2022-09-01T09:29:41.232Z,1.20
2022-09-01T09:30:41.979Z,1.10
2022-09-01T09:31:41.242Z,1.20
2022-09-01T09:33:11.868Z,1.10
2022-09-01T09:33:51.683Z,1.20
2022-09-01T09:34:42.189Z,1.40
2022-09-01T09:35:42.024Z,1.40
2022-09-01T09:36:41.892Z,1.20
2022-09-01T09:37:41.141Z,1.30
2022-09-01T09:38:41.154Z,1.60
2022-09-01T09:39:41.848Z,1.60
2022-09-01T09:41:07.516Z,1.20
2022-09-01T09:41:42.270Z,1.50
2022-09-01T09:42:41.861Z,1.30
2022-09-01T09:43:42.213Z,1.50
2022-09-01T09:44:41.771Z,1.70
2022-09-01T09:45:42.483Z,1.50
2022-09-01T09:46:41.128Z,1.30
2022-09-01T09:47:44.000Z,1.30
2022-09-01T09:48:41.779Z,1.30
2022-09-01T09:49:45.449Z,1.10
2022-09-01T09:50:41.997Z,1.50
2022-09-01T09:51:40.993Z,1.80
2022-09-01T09:52:41.314Z,1.10
2022-09-01T09:53:40.973Z,1.40
2022-09-01T09:54:41.352Z,1.70
2022-09-01T09:55:40.964Z,1.30
2022-09-01T09:56:40.925Z,1.30
2022-09-01T09:57:41.457Z,1.40
2022-09-01T09:58:40.952Z,1.70
2022-09-01T09:59:57.873Z,1.50
2022-09-01T10:00:41.893Z,1.80
2022-09-01T10:01:41.009Z,1.00
2022-09-01T10:02:40.886Z,1.60
2022-09-01T10:03:41.600Z,1.80
2022-09-01T10:04:41.185Z,1.20
2022-09-01T10:05:41.703Z,1.40
2022-09-01T10:06:41.575Z,1.40
2022-09-01T10:07:40.837Z,1.40
2022-09-01T10:08:41.617Z,1.40
2022-09-01T10:09:40.815Z,1.50
2022-09-01T10:10:40.768Z,1.60
2022-09-01T10:11:41.426Z,1.50
2022-09-01T10:12:40.749Z,1.60
2022-09-01T10:13:40.755Z,1.30
2022-09-01T10:14:51.936Z,1.50
2022-09-01T10:15:41.736Z,1.50
2022-09-01T10:16:40.714Z,1.20
2022-09-01T10:17:41.381Z,1.30
2022-09-01T10:18:40.866Z,1.50
2022-09-01T10:19:41.628Z,1.70
2022-09-01T10:20:41.486Z,1.50
2022-09-01T10:21:40.897Z,1.50
2022-09-01T10:22:40.996Z,1.60
2022-09-01T10:23:41.462Z,1.30
2022-09-01T10:24:44.708Z,1.50
2022-09-01T10:25:42.537Z,2.10
2022-09-01T10:26:40.595Z,1.50
2022-09-01T10:27:40.879Z,1.80
2022-09-01T10:28:40.567Z,1.70
2022-09-01T10:29:48.893Z,1.30
2022-09-01T10:30:42.431Z,1.20
2022-09-01T10:31:40.557Z,1.50
2022-09-01T10:32:49.269Z,1.60
2022-09-01T10:33:41.519Z,1.40
2022-09-01T10:34:42.063Z,1.30
2022-09-01T10:35:40.830Z,1.40
2022-09-01T10:36:40.787Z,1.20
2022-09-01T10:37:41.396Z,1.30
2022-09-01T10:38:40.458Z,1.40
2022-09-01T10:39:43.243Z,2.40
2022-09-01T10:40:43.624Z,1.40
2022-09-01T10:41:40.518Z,1.50
2022-09-01T10:42:40.562Z,1.30
2022-09-01T10:43:40.438Z,1.30
2022-09-01T10:44:40.389Z,1.10
2022-09-01T10:45:40.438Z,1.40
2022-09-01T10:46:42.162Z,1.40
2022-09-01T10:47:42.326Z,1.60
2022-09-01T10:48:55.270Z,1.30
2022-09-01T10:49:46.371Z,1.30
2022-09-01T10:50:40.471Z,1.60
2022-09-01T10:51:50.510Z,1.50
2022-09-01T10:52:41.348Z,1.60
2022-09-01T10:53:40.310Z,1.40
2022-09-01T10:54:50.814Z,1.60
2022-09-01T10:55:41.517Z,1.30
2022-09-01T10:56:44.388Z,1.60
2022-09-01T10:57:43.251Z,1.50
2022-09-01T10:59:44.976Z,1.20
2022-09-01T11:01:10.270Z,1.40
2022-09-01T11:01:49.004Z,1.70
2022-09-01T11:02:42.425Z,1.50
2022-09-01T11:03:47.872Z,1.40
2022-09-01T11:04:42.001Z,1.40
2022-09-01T11:05:40.171Z,1.40
2022-09-01T11:06:40.281Z,1.60
2022-09-01T11:08:41.217Z,1.60
2022-09-01T11:09:40.144Z,2.20
2022-09-01T11:10:40.135Z,1.70
2022-09-01T11:11:40.092Z,1.90
2022-09-01T11:12:40.071Z,1.40
2022-09-01T11:13:40.093Z,1.30
2022-09-01T11:14:40.062Z,1.30
2022-09-01T11:15:40.070Z,1.50
2022-09-01T11:16:49.641Z,1.50
2022-09-01T11:17:41.138Z,1.70
2022-09-01T11:18:40.813Z,1.50
2022-09-01T11:19:40.012Z,1.40
2022-09-01T11:20:40.842Z,1.40
2022-09-01T11:21:40.022Z,1.20
2022-09-01T11:22:40.173Z,1.40
2022-09-01T11:23:41.280Z,1.30
2022-09-01T11:24:39.942Z,1.50
2022-09-01T11:25:40.673Z,1.40
2022-09-01T11:26:40.235Z,1.40
2022-09-01T11:27:40.313Z,1.40
2022-09-01T11:28:39.921Z,1.30
2022-09-01T11:29:39.904Z,1.40
2022-09-01T11:30:40.535Z,1.40
2022-09-01T11:31:39.997Z,1.40
2022-09-01T11:32:42.639Z,1.20
2022-09-01T11:33:41.274Z,1.30
2022-09-01T11:34:40.553Z,1.20
2022-09-01T11:35:39.836Z,1.40
2022-09-01T11:36:39.825Z,1.60
2022-09-01T11:37:39.824Z,1.50
2022-09-01T11:38:39.804Z,1.40
2022-09-01T11:39:39.785Z,1.40
2022-09-01T11:40:39.823Z,1.50
2022-09-01T11:41:40.644Z,1.30
2022-09-01T11:42:39.770Z,1.30
2022-09-01T11:43:39.753Z,1.00
2022-09-01T11:44:39.752Z,1.30
2022-09-01T11:45:40.570Z,1.30
2022-09-01T11:46:39.686Z,1.20
2022-09-01T11:47:39.734Z,1.30
2022-09-01T11:48:39.664Z,1.30
2022-09-01T11:49:39.673Z,1.30
2022-09-01T11:50:39.659Z,1.30
2022-09-01T11:51:39.653Z,1.40
2022-09-01T11:52:39.703Z,1.20
2022-09-01T11:53:39.766Z,1.20
2022-09-01T11:54:39.597Z,1.20
2022-09-01T11:55:39.596Z,1.80
2022-09-01T11:56:39.576Z,1.10
2022-09-01T11:57:39.810Z,1.20
2022-09-01T11:58:39.806Z,1.30
2022-09-01T11:59:39.555Z,1.20
2022-09-01T12:00:39.536Z,1.10
2022-09-01T12:01:39.537Z,1.40
2022-09-01T12:02:39.955Z,1.30
2022-09-01T12:03:39.628Z,1.10
2022-09-01T12:04:39.497Z,1.30
2022-09-01T12:05:39.518Z,1.20
2022-09-01T12:06:39.467Z,1.40
2022-09-01T12:07:39.767Z,1.40
2022-09-01T12:08:39.469Z,1.60
2022-09-01T12:09:39.477Z,2.30
2022-09-01T12:10:39.435Z,1.60
2022-09-01T12:11:39.418Z,1.60
2022-09-01T12:12:39.398Z,1.30
2022-09-01T12:13:39.398Z,1.20
2022-09-01T12:15:04.416Z,1.40
2022-09-01T12:15:54.929Z,1.50
2022-09-01T12:16:40.376Z,1.50
2022-09-01T12:17:39.349Z,1.10
2022-09-01T12:18:39.328Z,1.20
2022-09-01T12:19:39.339Z,1.20
2022-09-01T12:20:39.900Z,1.10
2022-09-01T12:21:39.327Z,1.40
2022-09-01T12:22:39.331Z,1.60
2022-09-01T12:23:39.289Z,1.70
2022-09-01T12:24:39.269Z,1.20
2022-09-01T12:25:39.288Z,1.10
2022-09-01T12:26:39.259Z,1.10
2022-09-01T12:27:39.250Z,1.40
2022-09-01T12:28:39.219Z,1.20
2022-09-01T12:29:39.213Z,1.30
2022-09-01T12:30:39.191Z,1.30
2022-09-01T12:31:39.293Z,1.20
2022-09-01T12:32:39.171Z,1.30
2022-09-01T12:33:39.352Z,1.10
2022-09-01T12:34:39.140Z,1.10
2022-09-01T12:35:39.151Z,1.30
2022-09-01T12:36:39.147Z,1.10
2022-09-01T12:37:39.131Z,1.20
2022-09-01T12:38:39.110Z,1.40
2022-09-01T12:39:39.100Z,1.20
2022-09-01T12:40:39.150Z,1.60
2022-09-01T12:41:39.492Z,1.30
2022-09-01T12:42:40.664Z,1.50
2022-09-01T12:43:39.083Z,1.20
2022-09-01T12:44:39.569Z,1.30
2022-09-01T12:45:39.093Z,1.10
2022-09-01T12:46:39.022Z,1.40
2022-09-01T12:47:39.020Z,1.40
2022-09-01T12:48:38.991Z,1.50
2022-09-01T12:49:45.159Z,1.80
2022-09-01T12:50:39.972Z,2.00
2022-09-01T12:51:38.982Z,1.70
2022-09-01T12:52:40.203Z,1.30
2022-09-01T12:53:38.971Z,2.00
2022-09-01T12:54:38.962Z,1.70
2022-09-01T12:55:54.320Z,1.40
2022-09-01T12:56:39.913Z,1.20
2022-09-01T12:57:38.907Z,1.30
2022-09-01T12:58:39.490Z,1.60
2022-09-01T12:59:39.818Z,1.40
2022-09-01T13:00:38.863Z,1.20
2022-09-01T13:01:38.922Z,1.40
2022-09-01T13:02:38.969Z,1.30
2022-09-01T13:03:38.841Z,1.10
2022-09-01T13:04:38.814Z,1.20
2022-09-01T13:05:42.107Z,1.30
2022-09-01T13:06:38.794Z,1.50
2022-09-01T13:07:38.940Z,1.60
2022-09-01T13:08:38.774Z,1.50
2022-09-01T13:09:38.774Z,1.60
2022-09-01T13:10:38.855Z,1.20
2022-09-01T13:12:08.694Z,1.10
2022-09-01T13:12:39.725Z,1.60
2022-09-01T13:13:38.739Z,1.10
2022-09-01T13:14:38.984Z,1.20
2022-09-01T13:15:38.705Z,1.20
2022-09-01T13:16:38.707Z,1.50
2022-09-01T13:17:38.686Z,1.50
2022-09-01T13:19:39.673Z,1.20
2022-09-01T13:20:38.646Z,1.30
2022-09-01T13:22:38.617Z,1.30
2022-09-01T13:23:39.267Z,1.20
2022-09-01T13:24:38.888Z,1.30
2022-09-01T13:25:38.598Z,1.30
2022-09-01T13:26:38.577Z,1.50
2022-09-01T13:27:38.636Z,1.10
2022-09-01T13:28:40.433Z,1.30
2022-09-01T13:29:38.566Z,1.40
2022-09-01T13:30:38.558Z,1.30
2022-09-01T13:32:16.251Z,1.50
2022-09-01T13:33:18.929Z,1.40
2022-09-01T13:34:39.527Z,1.20
2022-09-01T13:35:38.486Z,1.30
2022-09-01T13:36:49.066Z,1.20
2022-09-01T13:37:39.486Z,1.00
2022-09-01T13:38:38.479Z,1.10
2022-09-01T13:39:38.438Z,1.30
2022-09-01T13:40:38.461Z,1.10
2022-09-01T13:41:38.419Z,1.00
2022-09-01T13:42:38.415Z,1.30
2022-09-01T13:43:39.173Z,1.10
2022-09-01T13:44:38.371Z,1.20
2022-09-01T13:45:38.430Z,1.60
2022-09-01T13:46:59.081Z,1.20
2022-09-01T13:48:15.095Z,1.20
2022-09-01T13:49:44.613Z,1.30